Time;durP1;ratioP1;P1;durP2;ratioP2;P2;SDS_P1;SDS_P2;PMS_P1;PMS_P2;Temp;Humidity;BMP_temperature;BMP_pressure;BME280_temperature;BME280_humidity;BME280_pressure;Samples;Min_cycle;Max_cycle;Signal;HPM_P1;HPM_P2
2021/06/06 00:01:53;;;;;;;1.88;1.30;;;20.00;79.80;;;;;;4993951;28;20091;-65
2021/06/06 00:04:22;;;;;;;3.20;1.80;;;20.00;79.80;;;;;;4993976;28;20041;-65
2021/06/06 00:06:48;;;;;;;2.40;1.20;;;20.00;79.90;;;;;;4993923;28;20057;-65
2021/06/06 00:09:19;;;;;;;1.60;0.95;;;20.00;79.80;;;;;;4996545;28;20022;-65
2021/06/06 00:11:48;;;;;;;1.58;0.90;;;19.90;79.70;;;;;;5003130;28;20062;-64
2021/06/06 00:14:21;;;;;;;2.47;1.25;;;19.90;79.70;;;;;;4993685;28;20392;-64
2021/06/06 00:16:54;;;;;;;3.40;1.42;;;19.90;79.80;;;;;;4993839;28;20058;-66
2021/06/06 00:19:21;;;;;;;3.72;1.70;;;19.90;79.90;;;;;;4993823;28;20046;-65
2021/06/06 00:21:48;;;;;;;1.70;1.17;;;19.90;79.60;;;;;;4993655;28;20033;-64
2021/06/06 00:24:21;;;;;;;2.40;1.50;;;19.90;79.70;;;;;;4992652;28;20054;-64
2021/06/06 00:26:47;;;;;;;1.85;1.15;;;19.80;79.50;;;;;;4993941;28;20334;-64
2021/06/06 00:29:13;;;;;;;3.60;1.35;;;19.80;79.70;;;;;;4993669;28;20092;-64
2021/06/06 00:31:39;;;;;;;2.10;1.42;;;19.80;79.50;;;;;;4994006;28;20034;-64
2021/06/06 00:34:05;;;;;;;1.92;0.98;;;19.70;79.50;;;;;;5002576;28;20026;-64
2021/06/06 00:36:31;;;;;;;2.08;1.17;;;19.70;79.10;;;;;;5013478;28;20480;-64
2021/06/06 00:38:57;;;;;;;1.90;1.30;;;19.70;79.40;;;;;;5013158;28;20018;-64
2021/06/06 00:41:26;;;;;;;2.00;1.17;;;19.70;79.70;;;;;;5013150;28;20018;-64
2021/06/06 00:43:52;;;;;;;1.35;1.13;;;19.70;79.80;;;;;;5011836;28;20026;-64
2021/06/06 00:46:22;;;;;;;1.20;1.08;;;19.70;79.70;;;;;;5012087;28;20357;-64
2021/06/06 00:48:48;;;;;;;3.42;1.42;;;19.60;79.50;;;;;;5013057;28;20033;-64
2021/06/06 00:51:23;;;;;;;1.80;1.13;;;19.70;79.90;;;;;;5013068;28;20033;-64
2021/06/06 00:53:54;;;;;;;2.30;1.00;;;19.60;79.80;;;;;;5005816;28;20065;-64
2021/06/06 00:56:24;;;;;;;1.73;1.00;;;19.70;80.10;;;;;;4993341;28;20015;-64
2021/06/06 00:58:53;;;;;;;1.00;0.90;;;19.70;80.10;;;;;;4993359;28;20474;-64
2021/06/06 01:01:21;;;;;;;2.33;1.15;;;19.60;79.60;;;;;;4992078;28;20120;-64
2021/06/06 01:03:48;;;;;;;1.98;1.10;;;19.60;79.80;;;;;;4992383;28;20611;-64
2021/06/06 01:06:25;;;;;;;3.08;1.20;;;19.60;79.30;;;;;;4993293;28;20031;-65
2021/06/06 01:08:52;;;;;;;2.28;0.90;;;19.60;79.60;;;;;;4993260;28;20369;-64
2021/06/06 01:11:29;;;;;;;2.50;1.00;;;19.60;79.80;;;;;;4993259;28;20443;-64
2021/06/06 01:14:04;;;;;;;3.20;0.70;;;19.60;79.60;;;;;;4993239;28;20038;-64
2021/06/06 01:16:42;;;;;;;4.07;1.17;;;19.60;79.70;;;;;;4993325;28;20019;-65
2021/06/06 01:19:29;;;;;;;1.00;0.90;;;19.60;79.60;;;;;;4993211;28;20018;-67
2021/06/06 01:22:14;;;;;;;3.83;0.80;;;19.60;79.80;;;;;;4993229;28;20053;-64
2021/06/06 01:24:48;;;;;;;4.55;1.10;;;19.60;79.80;;;;;;4993036;28;20022;-65
2021/06/06 01:27:18;;;;;;;1.50;1.20;;;19.60;80.10;;;;;;4993204;28;20085;-65
2021/06/06 01:29:52;;;;;;;2.13;1.15;;;19.60;80.00;;;;;;4991757;28;20121;-65
2021/06/06 01:32:23;;;;;;;1.42;0.95;;;19.70;80.00;;;;;;4993241;28;20388;-66
2021/06/06 01:35:06;;;;;;;1.33;0.82;;;19.70;79.80;;;;;;4992551;28;20392;-65
2021/06/06 01:37:33;;;;;;;1.50;1.00;;;19.60;79.30;;;;;;5012579;28;20022;-65
2021/06/06 01:40:14;;;;;;;1.30;1.02;;;19.60;79.60;;;;;;5012518;28;20033;-65
2021/06/06 01:42:45;;;;;;;2.00;1.27;;;19.60;79.60;;;;;;5012619;28;20018;-65
2021/06/06 01:45:40;;;;;;;1.35;1.10;;;19.70;79.70;;;;;;5014631;28;20575;-65
2021/06/06 01:48:09;;;;;;;2.45;1.33;;;19.70;79.60;;;;;;5016133;28;20041;-65
2021/06/06 01:50:40;;;;;;;1.48;1.08;;;19.60;79.30;;;;;;5016024;28;20025;-65
2021/06/06 01:53:07;;;;;;;1.15;0.98;;;19.60;79.50;;;;;;5003014;28;20073;-66
2021/06/06 01:55:40;;;;;;;1.75;1.00;;;19.70;79.60;;;;;;5004220;28;20030;-66
2021/06/06 01:58:06;;;;;;;3.50;1.17;;;19.70;79.70;;;;;;5015832;28;20097;-66
2021/06/06 02:00:49;;;;;;;2.22;1.38;;;19.70;79.60;;;;;;4996659;28;20109;-65
2021/06/06 02:03:15;;;;;;;3.60;1.02;;;19.70;79.50;;;;;;4996348;28;20026;-66
2021/06/06 02:05:42;;;;;;;2.22;1.30;;;19.70;79.50;;;;;;4996092;28;20038;-67
2021/06/06 02:08:12;;;;;;;1.60;1.00;;;19.70;79.50;;;;;;4996009;28;20022;-66
2021/06/06 02:10:51;;;;;;;1.20;1.10;;;19.70;79.40;;;;;;4996043;28;20554;-66
2021/06/06 02:13:23;;;;;;;1.10;1.00;;;19.80;79.40;;;;;;4995932;28;20062;-66
2021/06/06 02:15:52;;;;;;;1.15;0.90;;;19.80;79.50;;;;;;4995929;28;20026;-66
2021/06/06 02:18:18;;;;;;;0.85;0.85;;;19.80;79.30;;;;;;4995847;28;20541;-66
2021/06/06 02:20:48;;;;;;;2.10;1.30;;;19.80;79.30;;;;;;4995869;28;20476;-66
2021/06/06 02:23:36;;;;;;;5.38;1.10;;;19.80;78.90;;;;;;4996019;28;20015;-66
2021/06/06 02:26:32;;;;;;;1.13;0.90;;;19.80;78.80;;;;;;4995609;28;20038;-66
2021/06/06 02:29:17;;;;;;;3.00;1.30;;;19.80;78.70;;;;;;4995560;28;20054;-66
2021/06/06 02:31:52;;;;;;;1.25;1.02;;;19.80;78.50;;;;;;4995868;28;20417;-66
2021/06/06 02:34:26;;;;;;;2.03;1.40;;;19.80;78.40;;;;;;4995728;28;20551;-66
2021/06/06 02:36:57;;;;;;;1.30;1.20;;;19.80;78.20;;;;;;5010636;28;20026;-66
2021/06/06 02:39:29;;;;;;;1.20;1.10;;;19.80;78.00;;;;;;4995488;28;20499;-66
2021/06/06 02:42:05;;;;;;;1.20;1.10;;;19.90;77.70;;;;;;4995493;28;20358;-66
2021/06/06 02:44:40;;;;;;;1.50;1.20;;;19.80;77.50;;;;;;4995367;28;20068;-67
2021/06/06 02:47:07;;;;;;;3.03;1.10;;;19.80;77.20;;;;;;4995341;28;20038;-66
2021/06/06 02:49:38;;;;;;;1.65;1.20;;;19.80;76.90;;;;;;4995304;28;20033;-66
2021/06/06 02:52:14;;;;;;;1.50;1.10;;;19.80;76.80;;;;;;4995208;28;20542;-66
2021/06/06 02:54:48;;;;;;;2.38;1.17;;;19.80;76.80;;;;;;4995242;28;20399;-66
2021/06/06 02:57:17;;;;;;;1.33;1.17;;;19.80;76.60;;;;;;4994504;28;20069;-66
2021/06/06 03:00:26;;;;;;;2.05;1.42;;;19.80;75.90;;;;;;4995168;28;20384;-66
2021/06/06 03:02:59;;;;;;;1.80;1.10;;;19.80;75.70;;;;;;5032487;28;20060;-66
2021/06/06 03:05:29;;;;;;;1.75;0.90;;;19.80;75.70;;;;;;5032227;28;20125;-66
2021/06/06 03:07:59;;;;;;;2.15;1.13;;;19.80;75.40;;;;;;5032019;28;20060;-66
2021/06/06 03:10:27;;;;;;;12.57;1.35;;;19.80;75.90;;;;;;5032119;28;20038;-66
2021/06/06 03:12:57;;;;;;;2.03;1.17;;;19.70;74.80;;;;;;5031990;28;20479;-66
2021/06/06 03:15:29;;;;;;;1.95;1.05;;;19.70;75.00;;;;;;5032035;28;20075;-66
2021/06/06 03:17:57;;;;;;;2.03;1.15;;;19.70;75.00;;;;;;5032037;28;20029;-66
2021/06/06 03:20:42;;;;;;;5.03;1.15;;;19.70;74.60;;;;;;5031994;28;20025;-66
2021/06/06 03:23:10;;;;;;;1.73;1.10;;;19.70;74.20;;;;;;5031988;28;20525;-66
2021/06/06 03:25:47;;;;;;;1.13;1.02;;;19.70;74.20;;;;;;5031848;28;20121;-66
2021/06/06 03:28:15;;;;;;;1.65;1.10;;;19.80;74.00;;;;;;5031829;28;20108;-66
2021/06/06 03:30:45;;;;;;;1.23;1.10;;;19.80;74.20;;;;;;5031738;28;20049;-66
2021/06/06 03:33:20;;;;;;;1.05;0.98;;;19.80;74.10;;;;;;5015303;28;20541;-66
2021/06/06 03:35:46;;;;;;;3.38;1.20;;;19.80;73.90;;;;;;5029498;28;20051;-66
2021/06/06 03:38:14;;;;;;;1.88;1.17;;;19.80;73.70;;;;;;4994394;28;20022;-66
2021/06/06 03:40:43;;;;;;;1.80;0.93;;;19.80;73.60;;;;;;4993021;28;20404;-66
2021/06/06 03:43:13;;;;;;;1.13;0.90;;;19.80;74.50;;;;;;4994255;28;20080;-66
2021/06/06 03:45:39;;;;;;;1.30;1.20;;;19.80;73.70;;;;;;4994247;28;20080;-67
2021/06/06 03:48:05;;;;;;;1.65;1.20;;;19.80;73.10;;;;;;4993010;28;20034;-66
2021/06/06 03:50:34;;;;;;;1.30;1.20;;;19.80;73.20;;;;;;4994267;28;20034;-66
2021/06/06 03:53:01;;;;;;;4.05;1.60;;;19.80;73.10;;;;;;4993892;28;20038;-66
2021/06/06 03:55:26;;;;;;;1.58;1.35;;;19.80;73.20;;;;;;4994144;28;20023;-66
2021/06/06 03:57:53;;;;;;;2.47;1.42;;;19.80;73.20;;;;;;4994086;28;20073;-66
2021/06/06 04:00:33;;;;;;;2.65;1.60;;;19.90;73.30;;;;;;5009409;28;20400;-67
2021/06/06 04:03:00;;;;;;;2.80;1.92;;;19.80;73.30;;;;;;4994162;28;20023;-66
2021/06/06 04:05:26;;;;;;;3.97;1.55;;;19.90;73.00;;;;;;4993956;28;20030;-67
2021/06/06 04:07:52;;;;;;;1.70;1.52;;;19.90;73.20;;;;;;4993696;28;20027;-66
2021/06/06 04:10:19;;;;;;;2.83;1.73;;;19.90;72.90;;;;;;4993845;28;20029;-66
2021/06/06 04:12:45;;;;;;;3.28;2.13;;;19.90;72.70;;;;;;4993747;28;20022;-66
2021/06/06 04:15:11;;;;;;;1.70;1.60;;;19.90;71.90;;;;;;4993765;28;20034;-66
2021/06/06 04:17:37;;;;;;;2.45;1.90;;;19.90;72.10;;;;;;4993696;28;20022;-66
2021/06/06 04:20:05;;;;;;;2.30;2.10;;;19.90;72.20;;;;;;4993618;28;20401;-66
2021/06/06 04:22:30;;;;;;;2.25;1.90;;;19.90;72.10;;;;;;4992325;28;20026;-66
2021/06/06 04:24:56;;;;;;;2.42;2.10;;;19.90;72.20;;;;;;4993667;28;20078;-66
2021/06/06 04:27:22;;;;;;;2.50;2.30;;;19.90;72.10;;;;;;4993630;28;20045;-66
2021/06/06 04:29:48;;;;;;;3.20;2.15;;;19.90;71.60;;;;;;4993637;28;20089;-66
2021/06/06 04:32:16;;;;;;;1.88;1.77;;;19.90;71.60;;;;;;4993678;28;20061;-66
2021/06/06 04:34:43;;;;;;;2.40;2.20;;;19.90;71.50;;;;;;4993502;28;20399;-66
2021/06/06 04:37:11;;;;;;;2.40;2.20;;;19.90;71.30;;;;;;4993571;28;20420;-66
2021/06/06 04:39:38;;;;;;;5.60;2.83;;;19.80;71.20;;;;;;4993462;28;20033;-67
2021/06/06 04:42:09;;;;;;;2.72;2.10;;;19.80;70.90;;;;;;4993441;28;20022;-66
2021/06/06 04:44:38;;;;;;;3.38;2.25;;;19.80;70.70;;;;;;4993545;28;20027;-66
2021/06/06 04:47:08;;;;;;;5.38;2.42;;;19.80;70.90;;;;;;4992257;28;20034;-67
2021/06/06 04:49:35;;;;;;;2.60;2.40;;;19.80;71.20;;;;;;4993306;28;20058;-67
2021/06/06 04:52:02;;;;;;;2.67;2.47;;;19.80;71.30;;;;;;4993518;28;20041;-66
2021/06/06 04:54:28;;;;;;;2.72;2.42;;;19.80;71.10;;;;;;4993163;28;20062;-66
2021/06/06 04:56:54;;;;;;;2.83;2.55;;;19.80;70.90;;;;;;4993450;28;20022;-66
2021/06/06 04:59:20;;;;;;;4.57;2.42;;;19.80;70.70;;;;;;4993447;28;20023;-66
2021/06/06 05:01:46;;;;;;;2.80;2.60;;;19.80;70.70;;;;;;4993384;28;20034;-66
2021/06/06 05:04:11;;;;;;;2.97;2.67;;;19.80;70.80;;;;;;5005952;28;20030;-66
2021/06/06 05:06:37;;;;;;;3.40;3.10;;;19.80;70.80;;;;;;5012834;28;20105;-67
2021/06/06 05:09:04;;;;;;;2.38;2.17;;;19.80;70.30;;;;;;5012846;28;20080;-67
2021/06/06 05:11:30;;;;;;;3.72;2.78;;;19.80;70.20;;;;;;5012855;28;20030;-67
2021/06/06 05:13:56;;;;;;;2.40;2.20;;;19.80;70.20;;;;;;5012679;28;20033;-67
2021/06/06 05:16:22;;;;;;;3.97;2.42;;;19.80;70.10;;;;;;5012810;28;20132;-67
2021/06/06 05:18:48;;;;;;;1.88;1.73;;;19.80;70.10;;;;;;5013166;28;20076;-66
2021/06/06 05:21:14;;;;;;;3.28;2.05;;;19.80;70.30;;;;;;5016531;28;20030;-67
2021/06/06 05:23:40;;;;;;;1.85;1.70;;;19.80;70.20;;;;;;5016483;28;20365;-67
2021/06/06 05:26:06;;;;;;;4.22;1.80;;;19.80;70.20;;;;;;5014804;28;20113;-67
2021/06/06 05:28:35;;;;;;;3.67;2.00;;;19.80;70.50;;;;;;5000039;28;20076;-67
2021/06/06 05:31:04;;;;;;;1.60;1.50;;;19.80;70.40;;;;;;4996753;28;20038;-66
2021/06/06 05:33:30;;;;;;;2.17;1.98;;;19.80;70.70;;;;;;4996636;28;20133;-67
2021/06/06 05:35:56;;;;;;;3.35;1.92;;;19.90;70.70;;;;;;4996553;28;20054;-67
2021/06/06 05:38:24;;;;;;;1.98;1.80;;;19.90;70.90;;;;;;4996638;28;20030;-67
2021/06/06 05:40:51;;;;;;;2.45;2.22;;;19.90;70.90;;;;;;4996549;28;20034;-66
2021/06/06 05:43:18;;;;;;;5.07;2.20;;;19.90;70.50;;;;;;4996614;28;20026;-66
2021/06/06 05:45:46;;;;;;;2.22;2.03;;;19.90;70.30;;;;;;4996521;28;20110;-67
2021/06/06 05:48:13;;;;;;;5.25;2.58;;;19.90;70.30;;;;;;4994878;28;20057;-65
2021/06/06 05:50:43;;;;;;;4.35;2.20;;;19.90;70.70;;;;;;4996385;28;20447;-66
2021/06/06 05:53:09;;;;;;;3.10;1.70;;;19.90;70.70;;;;;;4996188;28;20022;-66
2021/06/06 05:55:36;;;;;;;2.53;2.10;;;19.90;70.90;;;;;;5009003;28;20026;-66
2021/06/06 05:58:03;;;;;;;3.10;2.20;;;19.90;71.00;;;;;;5015838;28;20022;-66
2021/06/06 06:00:33;;;;;;;2.40;2.20;;;19.90;70.90;;;;;;5012963;28;20018;-66
2021/06/06 06:02:59;;;;;;;3.00;2.00;;;19.90;71.10;;;;;;4996124;28;20022;-66
2021/06/06 06:05:28;;;;;;;2.00;1.60;;;19.90;71.10;;;;;;4994861;28;20600;-66
2021/06/06 06:07:54;;;;;;;2.20;2.00;;;19.90;70.80;;;;;;4996067;28;20049;-66
2021/06/06 06:10:28;;;;;;;2.45;2.00;;;19.90;70.80;;;;;;4996028;28;20037;-66
2021/06/06 06:12:55;;;;;;;2.15;1.95;;;19.90;70.60;;;;;;5005753;28;20026;-66
2021/06/06 06:15:22;;;;;;;2.35;1.60;;;19.90;70.60;;;;;;5015211;28;20030;-66
2021/06/06 06:17:47;;;;;;;1.98;1.60;;;19.90;71.30;;;;;;5015424;28;20054;-66
2021/06/06 06:20:17;;;;;;;2.72;1.88;;;19.90;71.50;;;;;;5015509;28;20045;-66
2021/06/06 06:22:43;;;;;;;2.72;2.00;;;19.90;71.30;;;;;;5015295;28;20033;-66
2021/06/06 06:25:11;;;;;;;1.75;1.58;;;20.00;71.50;;;;;;5015222;28;20492;-66
2021/06/06 06:27:37;;;;;;;1.83;1.73;;;20.00;71.40;;;;;;5005622;28;20078;-66
2021/06/06 06:30:08;;;;;;;1.85;1.38;;;20.00;71.30;;;;;;4995283;28;20388;-66
2021/06/06 06:32:33;;;;;;;1.52;1.42;;;20.10;71.40;;;;;;4995198;28;20364;-65
2021/06/06 06:34:59;;;;;;;1.88;1.77;;;20.10;71.30;;;;;;4995503;28;20037;-66
2021/06/06 06:37:25;;;;;;;2.13;1.80;;;20.20;70.60;;;;;;4995536;28;20025;-66
2021/06/06 06:39:52;;;;;;;2.65;1.55;;;20.20;70.20;;;;;;4995460;28;20472;-66
2021/06/06 06:42:18;;;;;;;3.60;1.50;;;20.10;70.20;;;;;;4995399;28;20464;-66
2021/06/06 06:44:43;;;;;;;1.95;1.67;;;20.20;70.50;;;;;;4995377;28;20034;-65
2021/06/06 06:47:09;;;;;;;1.70;1.55;;;20.20;70.50;;;;;;4995367;28;20101;-66
2021/06/06 06:49:35;;;;;;;3.22;1.83;;;20.20;70.60;;;;;;4995394;28;20505;-66
2021/06/06 06:52:01;;;;;;;1.85;1.75;;;20.30;70.50;;;;;;4995233;28;20034;-66
2021/06/06 06:54:27;;;;;;;2.17;1.67;;;20.30;70.90;;;;;;4994996;28;20048;-65
2021/06/06 06:56:53;;;;;;;2.70;1.60;;;20.30;71.00;;;;;;4995177;28;20093;-67
2021/06/06 06:59:21;;;;;;;2.35;1.65;;;20.40;71.00;;;;;;4995077;28;20061;-67
2021/06/06 07:01:47;;;;;;;2.13;1.90;;;20.40;70.90;;;;;;4999903;28;20018;-67
2021/06/06 07:04:13;;;;;;;3.15;1.70;;;20.50;70.30;;;;;;4994913;28;20041;-67
2021/06/06 07:06:39;;;;;;;2.83;1.73;;;20.50;70.70;;;;;;4995034;28;20026;-67
2021/06/06 07:09:05;;;;;;;4.03;1.77;;;20.50;70.10;;;;;;4994892;28;20034;-66
2021/06/06 07:11:31;;;;;;;1.60;1.40;;;20.50;70.00;;;;;;4994902;28;20484;-67
2021/06/06 07:13:56;;;;;;;2.90;1.63;;;20.60;70.20;;;;;;4994669;28;20037;-65
2021/06/06 07:16:22;;;;;;;1.50;1.40;;;20.60;69.90;;;;;;4994811;28;20023;-66
2021/06/06 07:18:49;;;;;;;2.00;1.60;;;20.60;70.10;;;;;;4994697;28;20023;-65
2021/06/06 07:21:21;;;;;;;1.70;1.25;;;20.60;69.30;;;;;;4993283;28;20488;-66
2021/06/06 07:23:47;;;;;;;3.33;1.25;;;20.60;69.70;;;;;;4993349;28;20046;-66
2021/06/06 07:26:19;;;;;;;1.98;1.20;;;20.60;69.70;;;;;;4994607;28;20547;-66
2021/06/06 07:28:46;;;;;;;4.80;1.60;;;20.70;70.20;;;;;;4994483;28;20042;-66
2021/06/06 07:31:13;;;;;;;1.48;1.15;;;20.70;70.20;;;;;;4994402;28;20027;-68
2021/06/06 07:33:42;;;;;;;1.42;1.20;;;20.70;69.40;;;;;;4994927;28;20464;-66
2021/06/06 07:36:11;;;;;;;1.67;1.17;;;20.80;68.80;;;;;;5014039;28;20073;-66
2021/06/06 07:38:36;;;;;;;1.27;1.00;;;20.70;68.70;;;;;;5013941;28;20476;-66
2021/06/06 07:41:03;;;;;;;1.33;1.00;;;20.80;69.50;;;;;;5012203;28;20030;-66
2021/06/06 07:43:29;;;;;;;1.90;0.90;;;20.80;69.70;;;;;;5010526;28;20473;-66
2021/06/06 07:45:55;;;;;;;1.50;1.17;;;20.80;70.00;;;;;;4994456;28;20431;-66
2021/06/06 07:48:22;;;;;;;0.77;0.73;;;20.80;69.20;;;;;;4994216;28;20026;-67
2021/06/06 07:50:51;;;;;;;1.10;0.93;;;20.90;69.10;;;;;;4994119;28;20031;-67
2021/06/06 07:53:18;;;;;;;1.35;0.85;;;20.90;69.40;;;;;;4993821;28;20022;-67
2021/06/06 07:55:44;;;;;;;1.20;0.90;;;20.90;69.50;;;;;;4994107;28;20022;-67
2021/06/06 07:58:12;;;;;;;3.38;0.95;;;21.00;69.10;;;;;;4994045;28;20029;-67
2021/06/06 08:00:42;;;;;;;0.88;0.80;;;21.00;68.70;;;;;;4993924;28;20080;-67
2021/06/06 08:03:08;;;;;;;1.63;0.85;;;20.90;68.20;;;;;;4993917;28;20019;-67
2021/06/06 08:05:35;;;;;;;0.85;0.60;;;20.90;67.50;;;;;;4992639;28;20018;-67
2021/06/06 08:08:02;;;;;;;1.17;0.80;;;20.90;68.30;;;;;;4993763;28;20026;-67
2021/06/06 08:10:30;;;;;;;3.38;0.70;;;20.90;68.60;;;;;;4993757;28;20385;-67
2021/06/06 08:12:56;;;;;;;0.77;0.73;;;20.90;68.60;;;;;;4994000;28;20388;-67
2021/06/06 08:15:23;;;;;;;1.10;0.60;;;20.90;68.90;;;;;;4992647;28;20026;-67
2021/06/06 08:17:50;;;;;;;1.02;0.70;;;20.90;69.00;;;;;;4993728;28;20019;-67
2021/06/06 08:20:23;;;;;;;0.93;0.70;;;20.90;68.10;;;;;;4993704;28;20022;-68
2021/06/06 08:22:49;;;;;;;4.63;0.77;;;20.80;68.20;;;;;;4993669;28;20019;-67
2021/06/06 08:25:18;;;;;;;1.40;0.80;;;20.80;68.20;;;;;;4993611;28;20030;-67
2021/06/06 08:27:44;;;;;;;1.10;0.80;;;20.80;68.00;;;;;;4993296;28;20484;-67
2021/06/06 08:30:16;;;;;;;3.15;0.98;;;20.80;68.50;;;;;;4993546;28;20041;-67
2021/06/06 08:32:42;;;;;;;1.02;0.68;;;20.80;68.00;;;;;;4993527;28;20526;-67
2021/06/06 08:35:08;;;;;;;3.53;0.75;;;20.70;68.20;;;;;;4993484;28;20031;-67
2021/06/06 08:37:34;;;;;;;1.23;0.60;;;20.70;68.50;;;;;;4993576;28;20489;-67
2021/06/06 08:40:00;;;;;;;1.45;0.88;;;20.70;68.90;;;;;;4993260;28;20054;-67
2021/06/06 08:42:29;;;;;;;1.15;0.60;;;20.70;69.20;;;;;;4993173;28;20022;-67
2021/06/06 08:45:21;;;;;;;1.00;0.70;;;20.70;69.70;;;;;;4993465;28;20484;-67
2021/06/06 08:47:49;;;;;;;1.20;0.80;;;20.80;70.10;;;;;;4993598;28;20492;-67
2021/06/06 08:50:19;;;;;;;1.75;0.65;;;20.80;70.40;;;;;;4993486;28;20584;-67
2021/06/06 08:53:12;;;;;;;0.60;0.60;;;20.90;69.90;;;;;;4994579;28;20483;-67
2021/06/06 08:56:03;;;;;;;1.90;0.88;;;20.90;69.60;;;;;;5007299;28;20064;-68
2021/06/06 08:58:32;;;;;;;1.20;0.93;;;20.90;69.30;;;;;;4997275;28;20023;-68
2021/06/06 09:01:06;;;;;;;0.50;0.50;;;21.00;69.20;;;;;;5012225;28;20022;-67
2021/06/06 09:03:32;;;;;;;1.20;0.77;;;20.90;68.80;;;;;;5003610;28;20052;-68
2021/06/06 09:06:05;;;;;;;0.85;0.60;;;20.90;68.20;;;;;;5016741;28;20033;-68
2021/06/06 09:08:34;;;;;;;2.13;1.00;;;20.80;68.40;;;;;;5005926;28;20120;-68
2021/06/06 09:11:06;;;;;;;3.38;0.70;;;20.80;67.80;;;;;;4997061;28;20077;-67
2021/06/06 09:13:32;;;;;;;1.20;0.80;;;20.70;68.00;;;;;;4996964;28;20027;-68
2021/06/06 09:16:20;;;;;;;2.35;1.15;;;20.70;68.50;;;;;;5011856;28;20028;-67
2021/06/06 09:18:47;;;;;;;1.15;0.88;;;20.70;68.40;;;;;;5008797;28;20041;-68
2021/06/06 09:21:22;;;;;;;1.95;1.00;;;20.70;68.90;;;;;;5011910;28;20022;-68
2021/06/06 09:23:51;;;;;;;2.22;1.42;;;20.70;69.20;;;;;;5015242;28;20026;-68
2021/06/06 09:26:17;;;;;;;2.05;1.30;;;20.70;69.50;;;;;;5016734;28;20018;-67
2021/06/06 09:28:48;;;;;;;2.63;1.10;;;20.80;70.00;;;;;;5015156;28;20537;-67
2021/06/06 09:31:17;;;;;;;1.45;1.10;;;20.80;70.20;;;;;;5016451;28;20029;-68
2021/06/06 09:33:49;;;;;;;2.00;1.13;;;20.80;69.80;;;;;;5016264;28;20471;-67
2021/06/06 09:36:34;;;;;;;1.88;1.23;;;20.80;69.70;;;;;;5016290;28;20065;-67
2021/06/06 09:39:08;;;;;;;1.25;1.00;;;20.90;70.10;;;;;;5016262;28;20018;-67
2021/06/06 09:41:37;;;;;;;0.82;0.70;;;20.90;69.80;;;;;;5005745;28;20027;-67
2021/06/06 09:44:12;;;;;;;0.93;0.80;;;21.00;70.10;;;;;;4996518;28;20057;-67
2021/06/06 09:46:49;;;;;;;2.75;1.40;;;21.00;70.30;;;;;;4996368;28;20037;-67
2021/06/06 09:49:36;;;;;;;1.75;1.20;;;21.00;70.50;;;;;;4996330;28;20114;-67
2021/06/06 09:52:40;;;;;;;3.05;1.90;;;21.10;69.80;;;;;;4996390;28;20365;-68
2021/06/06 09:55:24;;;;;;;2.72;1.90;;;21.10;69.60;;;;;;4996080;28;20043;-66
2021/06/06 09:57:54;;;;;;;2.42;1.77;;;21.10;69.30;;;;;;4996030;28;20432;-66
2021/06/06 10:00:22;;;;;;;9.15;2.90;;;21.10;68.70;;;;;;5009343;28;20037;-66
2021/06/06 10:03:05;;;;;;;2.83;2.22;;;21.10;68.20;;;;;;5015728;28;20022;-67
2021/06/06 10:05:39;;;;;;;5.37;3.40;;;21.10;68.00;;;;;;5011001;28;20041;-68
2021/06/06 10:08:18;;;;;;;4.80;3.22;;;21.10;68.40;;;;;;5012423;28;20022;-68
2021/06/06 10:10:47;;;;;;;2.13;1.80;;;21.10;69.10;;;;;;5015666;28;20056;-67
2021/06/06 10:13:21;;;;;;;1.77;1.60;;;21.10;69.40;;;;;;5014255;28;20101;-68
2021/06/06 10:15:51;;;;;;;1.50;1.40;;;21.20;69.10;;;;;;5015634;28;20113;-67
2021/06/06 10:18:31;;;;;;;2.42;1.50;;;21.30;69.60;;;;;;5006357;28;20157;-67
2021/06/06 10:21:26;;;;;;;2.78;2.10;;;21.40;70.40;;;;;;4996483;28;20037;-67
2021/06/06 10:24:11;;;;;;;2.63;2.38;;;21.50;70.40;;;;;;4995868;28;20105;-68
2021/06/06 10:26:40;;;;;;;2.65;2.00;;;21.60;70.60;;;;;;4995634;28;20034;-68
2021/06/06 10:29:30;;;;;;;2.15;1.95;;;21.70;70.20;;;;;;4995722;28;20373;-70
2021/06/06 10:32:19;;;;;;;3.58;2.05;;;21.90;69.00;;;;;;4993879;28;20026;-68
2021/06/06 10:34:50;;;;;;;1.67;1.58;;;22.00;69.50;;;;;;5001454;28;20563;-68
2021/06/06 10:37:16;;;;;;;1.67;1.58;;;22.10;70.60;;;;;;4994711;28;20072;-68
2021/06/06 10:40:12;;;;;;;3.28;1.48;;;22.30;69.90;;;;;;4994392;28;20030;-69
2021/06/06 10:42:48;;;;;;;1.80;1.40;;;22.50;68.10;;;;;;4994529;28;20018;-68
2021/06/06 10:45:30;;;;;;;2.15;1.50;;;22.60;68.20;;;;;;4994536;28;20476;-69
2021/06/06 10:48:02;;;;;;;4.63;1.60;;;22.80;67.80;;;;;;4994867;28;20068;-67
2021/06/06 10:50:41;;;;;;;2.33;1.40;;;22.90;67.10;;;;;;5006231;28;20091;-68
2021/06/06 10:53:13;;;;;;;2.42;1.40;;;23.00;65.90;;;;;;5006214;28;20033;-67
2021/06/06 10:56:03;;;;;;;2.35;1.70;;;23.10;65.50;;;;;;4997240;28;20076;-67
2021/06/06 10:58:49;;;;;;;2.38;1.80;;;23.20;65.50;;;;;;5022135;28;20680;-67
2021/06/06 11:01:17;;;;;;;1.65;1.17;;;23.20;65.60;;;;;;5010417;28;20428;-67
2021/06/06 11:03:46;;;;;;;2.10;1.00;;;23.30;65.40;;;;;;5007795;28;20100;-67
2021/06/06 11:06:29;;;;;;;1.85;1.33;;;23.30;66.40;;;;;;4997444;28;20105;-67
2021/06/06 11:08:55;;;;;;;1.30;1.02;;;23.40;64.40;;;;;;5013131;28;20026;-69
2021/06/06 11:11:29;;;;;;;2.80;1.05;;;23.40;64.40;;;;;;4998475;28;20033;-69
2021/06/06 11:14:02;;;;;;;;;;;23.40;65.30;;;;;;5002036;28;20030;-69
2021/06/06 11:16:36;;;;;;;1.95;1.30;;;23.40;65.70;;;;;;5010622;28;19951;-69
2021/06/06 11:19:20;;;;;;;2.22;1.30;;;23.50;64.30;;;;;;5009012;28;20026;-70
2021/06/06 11:22:01;;;;;;;1.38;1.27;;;23.40;63.00;;;;;;5008064;28;20026;-69
2021/06/06 11:24:42;;;;;;;1.35;1.10;;;23.40;63.20;;;;;;5014009;28;20026;-70
2021/06/06 11:27:10;;;;;;;1.35;1.10;;;23.40;63.00;;;;;;5004542;28;20061;-69
2021/06/06 11:30:12;;;;;;;1.45;1.33;;;23.40;63.60;;;;;;4993124;28;20036;-71
2021/06/06 11:32:56;;;;;;;1.73;1.30;;;23.40;63.90;;;;;;4995571;28;20038;-71
2021/06/06 11:35:47;;;;;;;2.08;1.60;;;23.40;64.30;;;;;;5013829;28;20029;-70
2021/06/06 11:38:31;;;;;;;1.48;1.02;;;23.40;63.10;;;;;;5007784;28;20097;-70
2021/06/06 11:41:11;;;;;;;1.48;1.10;;;23.40;62.30;;;;;;4994252;28;20018;-70
2021/06/06 11:43:44;;;;;;;1.92;1.58;;;23.40;63.80;;;;;;4993058;28;20445;-70
2021/06/06 11:46:14;;;;;;;1.65;1.55;;;23.50;64.30;;;;;;4994309;28;20432;-70
2021/06/06 11:48:52;;;;;;;3.67;1.58;;;23.50;64.50;;;;;;4994079;28;20546;-71
2021/06/06 11:51:38;;;;;;;1.75;1.35;;;23.50;63.00;;;;;;4994070;28;20037;-71
2021/06/06 11:54:21;;;;;;;1.52;1.40;;;23.60;64.20;;;;;;4993868;28;20046;-71
2021/06/06 11:56:47;;;;;;;1.88;1.60;;;23.60;63.70;;;;;;4994505;28;20029;-71
2021/06/06 11:59:40;;;;;;;1.77;1.52;;;23.70;64.30;;;;;;4993991;28;20105;-71
2021/06/06 12:02:28;;;;;;;1.88;1.42;;;23.70;64.20;;;;;;4992697;28;20421;-71
2021/06/06 12:04:56;;;;;;;2.25;1.65;;;23.70;62.90;;;;;;4993779;28;20101;-71
2021/06/06 12:07:28;;;;;;;1.88;1.67;;;23.70;62.80;;;;;;4993852;28;20057;-71
2021/06/06 12:09:57;;;;;;;2.13;1.50;;;23.70;63.00;;;;;;4993855;28;20061;-71
2021/06/06 12:12:50;;;;;;;2.33;1.80;;;23.70;63.20;;;;;;4992329;28;20053;-71
2021/06/06 12:15:32;;;;;;;1.83;1.70;;;23.60;63.30;;;;;;4993678;28;20027;-71
2021/06/06 12:18:05;;;;;;;2.45;1.60;;;23.60;63.50;;;;;;4993797;28;20019;-71
2021/06/06 12:20:32;;;;;;;2.58;1.25;;;23.60;63.30;;;;;;4993831;28;20483;-71
2021/06/06 12:23:10;;;;;;;2.00;1.50;;;23.60;64.30;;;;;;4992515;28;20076;-71
2021/06/06 12:25:37;;;;;;;7.32;1.50;;;23.60;63.70;;;;;;4993637;28;20388;-72
2021/06/06 12:28:23;;;;;;;1.80;1.70;;;23.70;64.30;;;;;;4993647;28;20096;-71
2021/06/06 12:30:54;;;;;;;3.28;1.70;;;23.70;64.00;;;;;;4992363;28;20022;-71
2021/06/06 12:33:35;;;;;;;2.38;1.90;;;23.70;63.50;;;;;;4993313;28;20077;-71
2021/06/06 12:36:27;;;;;;;2.13;1.88;;;23.70;63.90;;;;;;4993539;28;20027;-71
2021/06/06 12:39:02;;;;;;;1.65;1.55;;;23.90;64.20;;;;;;4993430;28;20077;-71
2021/06/06 12:41:41;;;;;;;2.40;1.92;;;23.90;64.30;;;;;;4993503;28;20077;-71
2021/06/06 12:44:09;;;;;;;2.00;1.88;;;24.00;64.40;;;;;;4993314;28;20069;-71
2021/06/06 12:46:51;;;;;;;2.65;2.05;;;24.00;64.20;;;;;;4996164;28;20041;-71
2021/06/06 12:49:39;;;;;;;2.10;1.85;;;24.10;62.60;;;;;;4994223;28;20037;-71
2021/06/06 12:52:28;;;;;;;2.10;1.77;;;24.10;63.70;;;;;;5006799;28;20061;-72
2021/06/06 12:54:55;;;;;;;2.00;1.70;;;24.20;63.20;;;;;;5012765;28;20042;-71
2021/06/06 12:57:25;;;;;;;1.75;1.65;;;24.30;63.80;;;;;;5012806;28;20022;-72
2021/06/06 13:00:04;;;;;;;2.10;1.88;;;24.40;64.80;;;;;;5011594;28;20030;-72
2021/06/06 13:02:32;;;;;;;1.70;1.42;;;24.50;63.70;;;;;;5000375;28;20480;-72
2021/06/06 13:05:09;;;;;;;1.80;1.70;;;24.60;63.40;;;;;;4993376;28;20026;-72
2021/06/06 13:07:36;;;;;;;2.80;1.42;;;24.70;61.50;;;;;;4993335;28;20018;-72
2021/06/06 13:10:24;;;;;;;3.50;1.40;;;24.70;62.10;;;;;;4991869;28;20101;-71
2021/06/06 13:12:49;;;;;;;2.50;1.45;;;24.70;61.30;;;;;;4993333;28;20042;-72